createdAt,value
2022-08-28T00:00:02.741Z,22.22
2022-08-28T00:02:29.543Z,22.07
2022-08-28T00:04:56.398Z,22.08
2022-08-28T00:07:23.253Z,22.13
2022-08-28T00:09:50.015Z,22.05
2022-08-28T00:12:17.070Z,22.02
2022-08-28T00:14:44.191Z,22.05
2022-08-28T00:17:11.376Z,22.20
2022-08-28T00:19:38.911Z,21.94
2022-08-28T00:22:07.605Z,22.18
2022-08-28T00:24:35.256Z,22.18
2022-08-28T00:27:20.346Z,22.30
2022-08-28T00:29:47.374Z,22.12
2022-08-28T00:32:14.185Z,21.45
2022-08-28T00:34:41.115Z,21.03
2022-08-28T00:37:08.056Z,21.50
2022-08-28T00:39:34.874Z,21.80
2022-08-28T00:42:02.055Z,22.17
2022-08-28T00:44:29.409Z,22.29
2022-08-28T00:46:58.036Z,22.41
2022-08-28T00:49:30.424Z,21.88
2022-08-28T00:52:06.106Z,22.01
2022-08-28T00:54:34.975Z,22.14
2022-08-28T00:57:05.256Z,22.25
2022-08-28T00:59:31.962Z,22.44
2022-08-28T01:01:59.727Z,22.58
2022-08-28T01:04:29.733Z,22.67
2022-08-28T01:06:58.685Z,22.57
2022-08-28T01:09:29.474Z,22.64
2022-08-28T01:12:03.279Z,22.79
2022-08-28T01:14:32.453Z,22.82
2022-08-28T01:16:59.438Z,22.98
2022-08-28T01:19:35.287Z,22.80
2022-08-28T01:22:50.246Z,22.97
2022-08-28T01:25:20.196Z,22.66
2022-08-28T01:27:47.056Z,22.88
2022-08-28T01:30:17.666Z,22.98
2022-08-28T01:32:48.087Z,22.92
2022-08-28T01:35:19.155Z,22.97
2022-08-28T01:37:46.580Z,22.90
2022-08-28T01:40:17.816Z,23.00
2022-08-28T01:42:45.109Z,22.98
2022-08-28T01:45:15.917Z,23.03
2022-08-28T01:47:44.721Z,22.80
2022-08-28T01:50:15.610Z,22.77
2022-08-28T01:52:42.799Z,22.54
2022-08-28T01:55:11.091Z,22.63
2022-08-28T01:57:50.658Z,22.75
2022-08-28T02:00:18.067Z,22.87
2022-08-28T02:02:44.867Z,22.69
2022-08-28T02:05:12.187Z,22.56
2022-08-28T02:07:39.230Z,22.85
2022-08-28T02:10:08.344Z,22.94
2022-08-28T02:12:36.048Z,22.81
2022-08-28T02:15:04.091Z,22.90
2022-08-28T02:17:30.860Z,22.92
2022-08-28T02:19:57.634Z,22.88
2022-08-28T02:22:24.348Z,22.95
2022-08-28T02:24:51.239Z,22.99
2022-08-28T02:27:18.492Z,22.87
2022-08-28T02:29:45.543Z,22.79
2022-08-28T02:32:12.601Z,22.44
2022-08-28T02:34:40.442Z,22.57
2022-08-28T02:37:08.933Z,22.64
2022-08-28T02:39:35.804Z,22.52
2022-08-28T02:42:02.658Z,22.60
2022-08-28T02:44:29.381Z,22.53
2022-08-28T02:46:56.129Z,22.67
2022-08-28T02:49:26.017Z,22.62
2022-08-28T02:51:58.709Z,22.42
2022-08-28T02:54:26.538Z,22.41
2022-08-28T02:56:54.478Z,22.57
2022-08-28T02:59:21.546Z,22.62
2022-08-28T03:01:48.733Z,22.64
2022-08-28T03:04:15.769Z,22.56
2022-08-28T03:06:42.643Z,22.35
2022-08-28T03:09:09.658Z,22.41
2022-08-28T03:11:37.165Z,22.56
2022-08-28T03:14:05.176Z,22.22
2022-08-28T03:16:32.631Z,22.56
2022-08-28T03:18:59.625Z,22.50
2022-08-28T03:21:26.466Z,22.32
2022-08-28T03:23:53.181Z,22.22
2022-08-28T03:26:21.088Z,21.84
2022-08-28T03:28:50.927Z,21.86
2022-08-28T03:31:22.186Z,22.03
2022-08-28T03:33:49.587Z,21.93
2022-08-28T03:36:21.664Z,21.80
2022-08-28T03:38:49.327Z,21.97
2022-08-28T03:41:18.494Z,21.67
2022-08-28T03:43:45.596Z,21.59
2022-08-28T03:46:15.480Z,21.65
2022-08-28T03:48:44.952Z,21.60
2022-08-28T03:51:18.191Z,21.75
2022-08-28T03:53:45.186Z,21.90
2022-08-28T03:56:15.711Z,21.83
2022-08-28T03:58:43.237Z,21.69
2022-08-28T04:01:10.472Z,21.84
2022-08-28T04:03:37.517Z,21.91
2022-08-28T04:06:04.393Z,21.98
2022-08-28T04:08:31.660Z,22.13
2022-08-28T04:11:00.999Z,22.01
2022-08-28T04:13:28.467Z,21.95
2022-08-28T04:16:07.979Z,21.81
2022-08-28T04:18:35.747Z,21.86
2022-08-28T04:21:08.035Z,21.75
2022-08-28T04:23:45.259Z,21.96
2022-08-28T04:26:15.087Z,21.98
2022-08-28T04:28:42.059Z,21.79
2022-08-28T04:31:09.108Z,21.70
2022-08-28T04:33:37.420Z,21.60
2022-08-28T04:36:06.674Z,21.80
2022-08-28T04:38:33.761Z,21.88
2022-08-28T04:41:06.792Z,22.19
2022-08-28T04:43:33.960Z,22.45
2022-08-28T04:46:08.147Z,22.66
2022-08-28T04:48:35.883Z,23.02
2022-08-28T04:51:05.852Z,23.17
2022-08-28T04:53:33.191Z,23.27
2022-08-28T04:56:00.856Z,23.56
2022-08-28T04:58:28.191Z,23.94
2022-08-28T05:00:55.269Z,24.08
2022-08-28T05:03:23.132Z,24.49
2022-08-28T05:05:53.305Z,24.98
2022-08-28T05:08:23.831Z,25.40
2022-08-28T05:10:51.141Z,25.93
2022-08-28T05:13:18.758Z,26.46
2022-08-28T05:15:49.146Z,27.15
2022-08-28T05:18:18.665Z,27.58
2022-08-28T05:20:46.656Z,27.92
2022-08-28T05:23:15.626Z,28.04
2022-08-28T05:25:45.569Z,28.57
2022-08-28T05:28:13.745Z,29.05
2022-08-28T05:30:42.137Z,29.43
2022-08-28T05:33:10.572Z,29.48
2022-08-28T05:35:40.226Z,29.91
2022-08-28T05:38:07.755Z,30.05
2022-08-28T05:40:41.127Z,30.37
2022-08-28T05:43:07.827Z,30.54
2022-08-28T05:45:34.620Z,30.63
2022-08-28T05:48:01.375Z,30.91
2022-08-28T05:50:28.143Z,31.02
2022-08-28T05:52:54.877Z,31.07
2022-08-28T05:55:21.916Z,30.74
2022-08-28T05:57:48.710Z,31.02
2022-08-28T06:00:15.652Z,31.20
2022-08-28T06:02:42.744Z,31.76
2022-08-28T06:05:13.000Z,31.96
2022-08-28T06:07:41.300Z,32.18
2022-08-28T06:10:10.621Z,32.40
2022-08-28T06:12:38.041Z,32.22
2022-08-28T06:15:06.120Z,32.39
2022-08-28T06:17:33.077Z,32.66
2022-08-28T06:19:59.828Z,32.63
2022-08-28T06:22:26.589Z,32.19
2022-08-28T06:24:54.092Z,31.22
2022-08-28T06:27:20.958Z,31.37
2022-08-28T06:29:47.734Z,30.35
2022-08-28T06:32:14.552Z,30.15
2022-08-28T06:34:41.672Z,30.05
2022-08-28T06:37:09.946Z,29.98
2022-08-28T06:39:36.813Z,29.88
2022-08-28T06:42:03.891Z,30.29
2022-08-28T06:44:32.437Z,30.13
2022-08-28T06:47:00.537Z,30.35
2022-08-28T06:49:27.487Z,30.29
2022-08-28T06:51:56.071Z,30.70
2022-08-28T06:54:23.623Z,31.09
2022-08-28T06:56:51.796Z,30.91
2022-08-28T06:59:18.568Z,30.47
2022-08-28T07:01:45.463Z,30.01
2022-08-28T07:04:14.665Z,30.48
2022-08-28T07:06:47.115Z,31.09
2022-08-28T07:09:15.113Z,30.75
2022-08-28T07:11:46.772Z,30.82
2022-08-28T07:14:13.556Z,30.82
2022-08-28T07:16:40.673Z,30.88
2022-08-28T07:19:10.651Z,30.93
2022-08-28T07:21:40.107Z,30.99
2022-08-28T07:24:07.700Z,30.96
2022-08-28T07:26:35.906Z,31.35
2022-08-28T07:29:10.073Z,30.72
2022-08-28T07:31:41.025Z,30.84
2022-08-28T07:34:09.779Z,30.96
2022-08-28T07:36:37.224Z,30.87
2022-08-28T07:39:05.418Z,30.67
2022-08-28T07:41:35.804Z,30.69
2022-08-28T07:44:21.407Z,30.75
2022-08-28T07:46:48.166Z,30.27
2022-08-28T07:49:18.731Z,29.92
2022-08-28T07:51:45.681Z,29.96
2022-08-28T07:54:16.868Z,29.63
2022-08-28T07:56:45.007Z,29.40
2022-08-28T07:59:12.108Z,29.46
2022-08-28T08:01:46.836Z,29.31
2022-08-28T08:04:16.267Z,29.27
2022-08-28T08:06:43.554Z,29.70
2022-08-28T08:09:13.204Z,29.64
2022-08-28T08:11:40.468Z,29.33
2022-08-28T08:14:07.679Z,28.94
2022-08-28T08:16:38.916Z,29.48
2022-08-28T08:19:06.433Z,28.64
2022-08-28T08:21:33.315Z,27.83
2022-08-28T08:24:00.090Z,29.17
2022-08-28T08:26:28.581Z,29.57
2022-08-28T08:28:56.340Z,29.84
2022-08-28T08:31:33.272Z,30.14
2022-08-28T08:34:04.970Z,30.68
2022-08-28T08:36:34.840Z,30.78
2022-08-28T08:39:02.291Z,30.79
2022-08-28T08:41:39.251Z,30.83
2022-08-28T08:44:40.530Z,30.95
2022-08-28T08:47:22.655Z,31.16
2022-08-28T08:50:00.515Z,31.27
2022-08-28T08:52:57.995Z,30.98
2022-08-28T08:55:28.957Z,31.66
2022-08-28T08:58:13.049Z,31.93
2022-08-28T09:01:05.446Z,32.27
2022-08-28T09:03:54.011Z,32.66
2022-08-28T09:06:29.894Z,32.92
2022-08-28T09:09:02.105Z,32.47
2022-08-28T09:11:56.934Z,32.85
2022-08-28T09:14:37.056Z,32.80
2022-08-28T09:17:06.986Z,32.79
2022-08-28T09:19:34.442Z,33.25
2022-08-28T09:22:01.766Z,33.29
2022-08-28T09:24:33.576Z,33.25
2022-08-28T09:27:00.524Z,33.69
2022-08-28T09:29:31.851Z,34.20
2022-08-28T09:32:12.412Z,34.48
2022-08-28T09:34:39.319Z,35.12
2022-08-28T09:37:08.537Z,35.41
2022-08-28T09:39:38.828Z,35.86
2022-08-28T09:42:33.371Z,35.09
2022-08-28T09:45:15.137Z,35.71
2022-08-28T09:47:46.354Z,36.38
2022-08-28T09:50:32.756Z,35.98
2022-08-28T09:53:17.794Z,36.18
2022-08-28T09:56:05.873Z,36.34
2022-08-28T09:58:39.526Z,36.81
2022-08-28T10:01:15.882Z,36.98
2022-08-28T10:04:16.841Z,36.72
2022-08-28T10:06:59.902Z,36.77
2022-08-28T10:09:39.087Z,35.85
2022-08-28T10:12:46.020Z,36.55
2022-08-28T10:15:19.604Z,37.18
2022-08-28T10:18:18.831Z,36.89
2022-08-28T10:20:45.669Z,37.50
2022-08-28T10:23:17.019Z,37.48
2022-08-28T10:26:02.340Z,37.37
2022-08-28T10:28:51.022Z,35.72
2022-08-28T10:32:09.844Z,35.65
2022-08-28T10:34:42.327Z,35.94
2022-08-28T10:37:30.879Z,36.72
2022-08-28T10:40:09.078Z,37.12
2022-08-28T10:42:40.753Z,36.90
2022-08-28T10:45:14.780Z,37.42
2022-08-28T10:47:51.479Z,35.82
2022-08-28T10:50:23.799Z,37.12
2022-08-28T10:53:15.126Z,37.16
2022-08-28T10:55:56.241Z,37.24
2022-08-28T10:58:26.323Z,37.38
2022-08-28T11:01:00.055Z,37.84
2022-08-28T11:03:35.812Z,37.37
2022-08-28T11:06:14.513Z,37.27
2022-08-28T11:08:41.994Z,36.19
2022-08-28T11:11:15.093Z,34.58
2022-08-28T11:14:25.623Z,35.66
2022-08-28T11:16:56.487Z,35.83
2022-08-28T11:19:43.416Z,36.19
2022-08-28T11:22:18.273Z,34.50
2022-08-28T11:24:55.141Z,34.51
2022-08-28T11:27:36.630Z,35.04
2022-08-28T11:30:06.718Z,34.64
2022-08-28T11:32:36.616Z,35.26
2022-08-28T11:35:27.673Z,35.33
2022-08-28T11:37:55.314Z,35.39
2022-08-28T11:40:31.986Z,35.11
2022-08-28T11:43:16.621Z,35.69
2022-08-28T11:45:46.763Z,36.31
2022-08-28T11:48:23.519Z,36.82
2022-08-28T11:50:59.231Z,37.36
2022-08-28T11:53:51.826Z,37.38
2022-08-28T11:56:40.809Z,37.64
2022-08-28T11:59:10.347Z,38.05
2022-08-28T12:01:37.769Z,38.44
2022-08-28T12:04:09.898Z,38.97
2022-08-28T12:06:48.641Z,38.91
2022-08-28T12:09:40.309Z,39.28
2022-08-28T12:12:33.086Z,38.41
2022-08-28T12:15:03.141Z,37.93
2022-08-28T12:17:44.055Z,37.66
2022-08-28T12:20:21.144Z,36.92
2022-08-28T12:22:57.574Z,37.06
2022-08-28T12:25:35.364Z,36.62
2022-08-28T12:28:27.432Z,36.78
2022-08-28T12:31:18.228Z,36.62
2022-08-28T12:33:57.976Z,36.68
2022-08-28T12:36:28.855Z,36.94
2022-08-28T12:39:00.673Z,37.04
2022-08-28T12:41:28.262Z,37.13
2022-08-28T12:43:58.538Z,37.57
2022-08-28T12:46:32.672Z,37.83
2022-08-28T12:49:06.046Z,37.47
2022-08-28T12:51:35.986Z,37.68
2022-08-28T12:54:08.433Z,38.29
2022-08-28T12:56:38.222Z,38.49
2022-08-28T12:59:40.231Z,38.57
2022-08-28T13:02:18.928Z,38.51
2022-08-28T13:04:52.075Z,38.70
2022-08-28T13:07:27.810Z,38.98
2022-08-28T13:09:56.976Z,39.15
2022-08-28T13:12:37.794Z,39.24
2022-08-28T13:15:43.198Z,39.50
2022-08-28T13:18:10.312Z,38.95
2022-08-28T13:20:38.465Z,39.06
2022-08-28T13:23:05.724Z,39.34
2022-08-28T13:25:36.332Z,39.19
2022-08-28T13:28:13.335Z,39.33
2022-08-28T13:30:40.770Z,39.61
2022-08-28T13:33:16.325Z,39.47
2022-08-28T13:35:43.312Z,39.41
2022-08-28T13:38:13.410Z,39.07
2022-08-28T13:40:59.156Z,38.86
2022-08-28T13:43:30.236Z,38.78
2022-08-28T13:45:58.147Z,38.52
2022-08-28T13:48:26.902Z,38.57
2022-08-28T13:51:10.218Z,38.75
2022-08-28T13:53:38.740Z,38.43
2022-08-28T13:56:06.362Z,38.54
2022-08-28T13:58:33.510Z,38.60
2022-08-28T14:01:00.818Z,38.25
2022-08-28T14:03:37.863Z,37.97
2022-08-28T14:06:17.502Z,38.16
2022-08-28T14:08:45.823Z,38.10
2022-08-28T14:11:15.202Z,38.34
2022-08-28T14:13:47.012Z,38.25
2022-08-28T14:16:22.962Z,38.14
2022-08-28T14:18:50.582Z,38.01
2022-08-28T14:21:17.390Z,38.04
2022-08-28T14:23:44.263Z,37.66
2022-08-28T14:26:11.403Z,37.70
2022-08-28T14:28:38.621Z,37.64
2022-08-28T14:31:11.006Z,37.09
2022-08-28T14:33:45.247Z,36.46
2022-08-28T14:36:19.053Z,37.25
2022-08-28T14:38:45.997Z,36.35
2022-08-28T14:41:14.898Z,36.57
2022-08-28T14:43:42.270Z,36.43
2022-08-28T14:46:14.457Z,34.18
2022-08-28T14:48:41.393Z,35.29
2022-08-28T14:51:08.349Z,35.31
2022-08-28T14:53:35.150Z,35.51
2022-08-28T14:56:01.997Z,35.57
2022-08-28T14:58:28.808Z,35.61
2022-08-28T15:00:55.663Z,35.67
2022-08-28T15:03:22.526Z,35.68
2022-08-28T15:06:03.644Z,35.24
2022-08-28T15:08:30.722Z,34.86
2022-08-28T15:10:57.728Z,34.21
2022-08-28T15:13:24.957Z,34.39
2022-08-28T15:16:20.387Z,33.85
2022-08-28T15:18:47.754Z,33.50
2022-08-28T15:21:27.164Z,32.44
2022-08-28T15:23:56.479Z,33.39
2022-08-28T15:26:24.965Z,33.46
2022-08-28T15:28:55.788Z,33.29
2022-08-28T15:31:25.547Z,33.47
2022-08-28T15:33:52.731Z,33.38
2022-08-28T15:36:20.242Z,33.10
2022-08-28T15:39:05.884Z,33.43
2022-08-28T15:41:32.648Z,33.35
2022-08-28T15:44:01.860Z,33.31
2022-08-28T15:46:33.884Z,33.00
2022-08-28T15:49:02.657Z,33.31
2022-08-28T15:51:30.724Z,33.22
2022-08-28T15:53:58.114Z,33.28
2022-08-28T15:56:25.722Z,33.35
2022-08-28T15:58:52.942Z,33.40
2022-08-28T16:01:21.094Z,32.38
2022-08-28T16:03:47.977Z,32.58
2022-08-28T16:06:18.222Z,32.26
2022-08-28T16:08:46.071Z,32.27
2022-08-28T16:11:20.873Z,32.33
2022-08-28T16:13:47.706Z,32.47
2022-08-28T16:16:14.603Z,32.39
2022-08-28T16:18:42.637Z,32.03
2022-08-28T16:21:11.075Z,32.02
2022-08-28T16:23:38.835Z,32.01
2022-08-28T16:26:07.779Z,31.39
2022-08-28T16:28:35.922Z,30.72
2022-08-28T16:31:07.299Z,29.61
2022-08-28T16:33:35.617Z,30.53
2022-08-28T16:36:09.914Z,30.06
2022-08-28T16:38:42.171Z,29.39
2022-08-28T16:41:21.911Z,29.48
2022-08-28T16:43:50.000Z,27.75
2022-08-28T16:46:20.185Z,27.93
2022-08-28T16:48:47.954Z,27.97
2022-08-28T16:51:16.238Z,28.08
2022-08-28T16:53:43.360Z,28.25
2022-08-28T16:56:12.946Z,28.18
2022-08-28T16:58:41.290Z,27.21
2022-08-28T17:01:08.917Z,27.97
2022-08-28T17:03:38.011Z,27.94
2022-08-28T17:06:26.939Z,28.33
2022-08-28T17:08:56.866Z,28.34
2022-08-28T17:11:26.219Z,28.01
2022-08-28T17:13:53.429Z,27.72
2022-08-28T17:16:20.953Z,28.00
2022-08-28T17:18:52.627Z,27.80
2022-08-28T17:21:39.861Z,27.59
2022-08-28T17:24:07.257Z,27.21
2022-08-28T17:26:34.282Z,27.38
2022-08-28T17:29:01.163Z,27.57
2022-08-28T17:31:28.007Z,27.32
2022-08-28T17:33:54.842Z,26.92
2022-08-28T17:36:33.585Z,27.03
2022-08-28T17:39:05.859Z,27.01
2022-08-28T17:41:33.691Z,27.35
2022-08-28T17:44:01.729Z,27.23
2022-08-28T17:46:31.878Z,27.21
2022-08-28T17:49:03.125Z,27.12
2022-08-28T17:51:41.865Z,27.11
2022-08-28T17:54:18.681Z,27.06
2022-08-28T17:56:45.731Z,26.79
2022-08-28T17:59:13.436Z,27.05
2022-08-28T18:01:41.902Z,27.23
2022-08-28T18:04:09.255Z,26.79
2022-08-28T18:06:36.465Z,26.99
2022-08-28T18:09:04.928Z,26.94
2022-08-28T18:11:31.811Z,27.00
2022-08-28T18:13:59.953Z,26.49
2022-08-28T18:16:31.152Z,26.61
2022-08-28T18:19:00.587Z,26.38
2022-08-28T18:21:28.243Z,26.28
2022-08-28T18:23:55.199Z,26.41
2022-08-28T18:26:22.087Z,26.46
2022-08-28T18:28:49.592Z,26.52
2022-08-28T18:31:16.479Z,26.42
2022-08-28T18:33:43.411Z,26.39
2022-08-28T18:36:12.340Z,26.26
2022-08-28T18:38:40.299Z,26.46
2022-08-28T18:41:08.736Z,25.90
2022-08-28T18:43:37.829Z,25.31
2022-08-28T18:46:06.282Z,25.99
2022-08-28T18:48:33.361Z,25.72
2022-08-28T18:51:02.010Z,25.73
2022-08-28T18:53:29.571Z,25.53
2022-08-28T18:55:56.805Z,25.62
2022-08-28T18:58:28.171Z,25.16
2022-08-28T19:00:55.228Z,25.39
2022-08-28T19:03:22.811Z,24.83
2022-08-28T19:05:50.193Z,25.25
2022-08-28T19:08:17.256Z,25.15
2022-08-28T19:10:45.394Z,25.32
2022-08-28T19:13:12.386Z,25.30
2022-08-28T19:15:39.286Z,25.24
2022-08-28T19:18:06.858Z,25.64
2022-08-28T19:20:34.485Z,25.45
2022-08-28T19:23:01.573Z,25.70
2022-08-28T19:25:30.817Z,25.57
2022-08-28T19:27:59.888Z,25.67
2022-08-28T19:30:29.999Z,25.61
2022-08-28T19:32:56.937Z,25.27
2022-08-28T19:35:24.925Z,25.65
2022-08-28T19:37:55.607Z,25.61
2022-08-28T19:40:24.451Z,25.87
2022-08-28T19:42:51.796Z,25.74
2022-08-28T19:45:20.755Z,25.76
2022-08-28T19:47:48.265Z,25.84
2022-08-28T19:50:15.689Z,25.70
2022-08-28T19:52:46.388Z,25.26
2022-08-28T19:55:20.048Z,25.57
2022-08-28T19:57:48.670Z,25.55
2022-08-28T20:00:21.752Z,25.92
2022-08-28T20:02:49.824Z,25.65
2022-08-28T20:05:16.888Z,25.73
2022-08-28T20:07:44.591Z,25.32
2022-08-28T20:10:12.998Z,25.29
2022-08-28T20:12:40.165Z,25.37
2022-08-28T20:15:16.331Z,25.48
2022-08-28T20:17:43.708Z,25.33
2022-08-28T20:20:18.175Z,25.55
2022-08-28T20:22:45.083Z,25.66
2022-08-28T20:25:12.297Z,25.40
2022-08-28T20:27:41.576Z,25.49
2022-08-28T20:30:11.142Z,25.37
2022-08-28T20:32:40.377Z,25.59
2022-08-28T20:35:09.964Z,25.64
2022-08-28T20:37:44.667Z,25.80
2022-08-28T20:40:18.807Z,25.77
2022-08-28T20:42:46.681Z,25.73
2022-08-28T20:45:15.767Z,25.74
2022-08-28T20:47:43.029Z,25.36
2022-08-28T20:50:10.394Z,25.60
2022-08-28T20:52:37.483Z,25.55
2022-08-28T20:55:05.565Z,25.58
2022-08-28T20:57:32.317Z,25.54
2022-08-28T21:00:02.255Z,25.53
2022-08-28T21:02:32.261Z,25.34
2022-08-28T21:05:00.323Z,25.39
2022-08-28T21:07:27.614Z,25.65
2022-08-28T21:10:06.963Z,25.42
2022-08-28T21:12:38.974Z,25.34
2022-08-28T21:15:12.643Z,25.22
2022-08-28T21:17:40.139Z,25.09
2022-08-28T21:20:10.840Z,25.10
2022-08-28T21:22:38.642Z,24.66
2022-08-28T21:25:07.355Z,24.11
2022-08-28T21:27:34.822Z,24.21
2022-08-28T21:30:02.012Z,23.79
2022-08-28T21:32:30.283Z,24.47
2022-08-28T21:34:57.194Z,24.05
2022-08-28T21:37:24.023Z,24.15
2022-08-28T21:39:51.103Z,23.86
2022-08-28T21:42:18.070Z,23.90
2022-08-28T21:44:51.456Z,23.85
2022-08-28T21:47:19.754Z,24.10
2022-08-28T21:49:49.736Z,23.88
2022-08-28T21:52:18.544Z,23.99
2022-08-28T21:54:45.680Z,24.24
2022-08-28T21:57:12.496Z,23.63
2022-08-28T21:59:39.310Z,24.13
2022-08-28T22:02:06.412Z,23.82
2022-08-28T22:04:33.482Z,23.99
2022-08-28T22:07:00.316Z,23.98
2022-08-28T22:09:29.176Z,24.18
2022-08-28T22:11:56.038Z,23.73
2022-08-28T22:14:24.694Z,24.20
2022-08-28T22:16:51.591Z,24.48
2022-08-28T22:19:18.423Z,24.32
2022-08-28T22:22:03.675Z,24.60
2022-08-28T22:24:30.679Z,23.85
2022-08-28T22:26:57.791Z,23.78
2022-08-28T22:29:25.255Z,23.97
2022-08-28T22:31:52.875Z,23.19
2022-08-28T22:34:20.052Z,23.52
2022-08-28T22:36:47.151Z,23.47
2022-08-28T22:39:14.094Z,23.13
2022-08-28T22:41:41.775Z,23.51
2022-08-28T22:44:08.538Z,23.57
2022-08-28T22:46:36.168Z,23.58
2022-08-28T22:49:04.105Z,23.25
2022-08-28T22:51:34.040Z,23.56
2022-08-28T22:54:00.903Z,23.34
2022-08-28T22:56:27.730Z,23.10
2022-08-28T22:58:54.595Z,23.33
2022-08-28T23:01:24.987Z,23.38
2022-08-28T23:03:52.493Z,23.08
2022-08-28T23:06:20.587Z,23.29
2022-08-28T23:08:47.828Z,22.76
2022-08-28T23:11:15.280Z,22.94
2022-08-28T23:13:42.100Z,22.87
2022-08-28T23:16:09.296Z,22.99
2022-08-28T23:19:06.748Z,23.16
2022-08-28T23:21:26.219Z,23.20
2022-08-28T23:23:53.405Z,23.59
2022-08-28T23:26:20.253Z,23.53
2022-08-28T23:28:47.150Z,23.50
2022-08-28T23:31:14.011Z,23.44
2022-08-28T23:33:41.364Z,23.57
2022-08-28T23:36:08.797Z,23.41
2022-08-28T23:38:39.669Z,23.26
2022-08-28T23:41:07.900Z,23.29
2022-08-28T23:43:34.929Z,23.42
2022-08-28T23:46:02.008Z,23.52
2022-08-28T23:48:29.420Z,23.44
2022-08-28T23:50:56.169Z,23.72
2022-08-28T23:53:22.928Z,23.51
2022-08-28T23:55:50.366Z,23.78
2022-08-28T23:58:20.784Z,23.25
